Carmen, Idaho
Current Conditions -  °F | °C
As of 6:35 PM on Thursday 27 Nov 2014 (Local Time) from KSMN Reporting Station
Broken Clouds Broken Clouds  
Wind Chill: 42°   Ceiling: 5000
Heat Index: 46°   Visibility: 10mi
Dew Point: 37°   Wind: 8mph
Humidity: 71%   Direction: 180°S
Pressure: 30.01"   Gusts: NA
Location:  45.24°N, 113.89°W
Report Text: KSMN 280135Z AUTO 18007KT 10SM FEW038 BKN050 08/03 A3001 RMK AO1
Loading
Personal Weather Stations






























Interactive Weather Map New forecast layout! Learn more

10-Day Weather Forecast

Advertisements
Track Severe Weather on mobile